| time (UTC) | temp F | wind direction | speed MPH | gust MPH | rain 1hr in | rain 24hr in | rain mn in | humidity % | barometer mb |
| 20260510081550 | 70 | 224 | 3.0 | 9.0 | 0.00 | 0.00 | 0.00 | 82 | 1012.9 |
| 20260510080044 | 70 | 147 | 5.0 | 8.0 | 0.00 | 0.00 | 0.00 | 82 | 1013.0 |
| 20260510074547 | 70 | 165 | 2.0 | 6.0 | 0.00 | 0.00 | 0.00 | 82 | 1013.2 |
| 20260510073044 | 70 | 144 | 2.0 | 5.0 | 0.00 | 0.00 | 0.00 | 81 | 1013.2 |
| 20260510071551 | 70 | 157 | 3.0 | 9.0 | 0.00 | 0.00 | 0.00 | 80 | 1013.1 |
| 20260510070054 | 71 | 136 | 3.0 | 6.0 | 0.00 | 0.00 | 0.00 | 80 | 1013.2 |
| 20260510064538 | 71 | 107 | 2.0 | 8.0 | 0.00 | 0.00 | 0.00 | 79 | 1013.2 |
| 20260510063049 | 72 | 147 | 2.0 | 6.0 | 0.00 | 0.00 | 0.00 | 78 | 1013.4 |
| 20260510061545 | 72 | 138 | 3.0 | 7.0 | 0.00 | 0.00 | 0.00 | 77 | 1013.3 |
| 20260510060044 | 72 | 153 | 3.0 | 6.0 | 0.00 | 0.00 | 0.00 | 77 | 1013.2 |
| 20260510054538 | 73 | 146 | 2.0 | 5.0 | 0.00 | 0.00 | 0.00 | 76 | 1013.3 |
| 20260510053045 | 73 | 153 | 2.0 | 5.0 | 0.00 | 0.00 | 0.00 | 75 | 1013.3 |
| 20260510051547 | 74 | 156 | 3.0 | 6.0 | 0.00 | 0.00 | 0.00 | 74 | 1013.2 |
| 20260510050056 | 74 | 140 | 3.0 | 6.0 | 0.00 | 0.00 | 0.00 | 75 | 1013.2 |
| 20260510044553 | 73 | 141 | 1.0 | 4.0 | 0.00 | 0.00 | 0.00 | 75 | 1013.1 |
| 20260510043048 | 74 | 0 | 0.0 | 3.0 | 0.00 | 0.00 | 0.00 | 75 | 1013.2 |
| 20260510041546 | 74 | 140 | 2.0 | 4.0 | 0.00 | 0.00 | 0.00 | 73 | 1013.3 |
| 20260510040055 | 75 | 134 | 2.0 | 4.0 | 0.00 | 0.00 | 0.00 | 72 | 1013.0 |
| 20260510034547 | 75 | 132 | 3.0 | 7.0 | 0.00 | 0.00 | 0.00 | 71 | 1012.9 |
| 20260510033100 | 76 | 127 | 3.0 | 6.0 | 0.00 | 0.00 | 0.00 | 69 | 1012.8 |
| 20260510031556 | 76 | 113 | 3.0 | 6.0 | 0.00 | 0.00 | 0.00 | 67 | 1012.6 |
| 20260510030048 | 77 | 126 | 3.0 | 7.0 | 0.00 | 0.00 | 0.00 | 65 | 1012.4 |
| 20260510024544 | 77 | 138 | 4.0 | 8.0 | 0.00 | 0.00 | 0.00 | 63 | 1012.1 |
| 20260510023044 | 79 | 103 | 3.0 | 8.0 | 0.00 | 0.00 | 0.00 | 60 | 1011.9 |
| 20260510021544 | 79 | 171 | 2.0 | 7.0 | 0.00 | 0.00 | 0.00 | 58 | 1011.7 |
| 20260510020051 | 80 | 116 | 1.0 | 8.0 | 0.00 | 0.00 | 0.00 | 55 | 1011.4 |
| 20260510014550 | 81 | 147 | 1.0 | 6.0 | 0.00 | 0.00 | 0.00 | 52 | 1011.2 |
| 20260510013042 | 83 | 157 | 2.0 | 5.0 | 0.00 | 0.00 | 0.00 | 49 | 1010.9 |
| 20260510011545 | 83 | 143 | 2.0 | 3.0 | 0.00 | 0.00 | 0.00 | 49 | 1010.8 |
| 20260510010046 | 84 | 142 | 1.0 | 4.0 | 0.00 | 0.00 | 0.00 | 48 | 1010.6 |
| 20260510004544 | 85 | 155 | 0.0 | 2.0 | 0.00 | 0.00 | 0.00 | 47 | 1010.6 |
| 20260510003045 | 86 | 153 | 1.0 | 4.0 | 0.00 | 0.00 | 0.00 | 46 | 1010.5 |
| 20260510001546 | 87 | 0 | 0.0 | 3.0 | 0.00 | 0.00 | 0.00 | 44 | 1010.4 |
| 20260509234554 | 89 | 59 | 1.0 | 4.0 | 0.00 | 0.00 | 0.00 | 43 | 1010.3 |
| 20260509233047 | 90 | 149 | 1.0 | 5.0 | 0.00 | 0.00 | 0.00 | 39 | 1010.2 |
| 20260509231547 | 89 | 192 | 3.0 | 8.0 | 0.00 | 0.00 | 0.00 | 40 | 1010.2 |
| 20260509230047 | 91 | 147 | 2.0 | 7.0 | 0.00 | 0.00 | 0.00 | 39 | 1010.3 |
| 20260509224545 | 94 | 40 | 1.0 | 4.0 | 0.00 | 0.00 | 0.00 | 35 | 1010.4 |
| 20260509223049 | 94 | 114 | 1.0 | 5.0 | 0.00 | 0.00 | 0.00 | 36 | 1010.3 |
| 20260509221547 | 92 | 151 | 3.0 | 7.0 | 0.00 | 0.00 | 0.00 | 36 | 1010.3 |
| 20260509220047 | 93 | 255 | 2.0 | 5.0 | 0.00 | 0.00 | 0.00 | 35 | 1010.3 |
| 20260509214544 | 95 | 28 | 2.0 | 6.0 | 0.00 | 0.00 | 0.00 | 32 | 1010.4 |
| 20260509213053 | 95 | 100 | 1.0 | 6.0 | 0.00 | 0.00 | 0.00 | 31 | 1010.6 |
| 20260509211546 | 94 | 22 | 0.0 | 7.0 | 0.00 | 0.00 | 0.00 | 36 | 1010.7 |
| 20260509210053 | 94 | 273 | 2.0 | 7.0 | 0.00 | 0.00 | 0.00 | 37 | 1010.9 |
| 20260509204552 | 94 | 128 | 1.0 | 6.0 | 0.00 | 0.00 | 0.00 | 39 | 1011.1 |
| 20260509203044 | 94 | 0 | 2.0 | 9.0 | 0.00 | 0.00 | 0.00 | 39 | 1011.5 |
| 20260509201547 | 91 | 0 | 0.0 | 6.0 | 0.00 | 0.00 | 0.00 | 41 | 1011.8 |
| 20260509200049 | 93 | 142 | 1.0 | 9.0 | 0.00 | 0.00 | 0.00 | 40 | 1012.0 |
| 20260509194540 | 93 | 238 | 2.0 | 7.0 | 0.00 | 0.00 | 0.00 | 43 | 1012.0 |
| 20260509193046 | 91 | 236 | 3.0 | 9.0 | 0.00 | 0.00 | 0.00 | 48 | 1012.1 |
| 20260509191543 | 90 | 296 | 2.0 | 8.0 | 0.00 | 0.00 | 0.00 | 46 | 1012.3 |
| 20260509190042 | 89 | 233 | 1.0 | 9.0 | 0.00 | 0.00 | 0.00 | 47 | 1012.4 |
| 20260509184557 | 87 | 346 | 2.0 | 7.0 | 0.00 | 0.00 | 0.00 | 52 | 1012.8 |
| 20260509183045 | 88 | 188 | 1.0 | 7.0 | 0.00 | 0.00 | 0.00 | 54 | 1013.0 |
| 20260509181550 | 86 | 173 | 3.0 | 7.0 | 0.00 | 0.00 | 0.00 | 56 | 1013.3 |
| 20260509180046 | 86 | 0 | 2.0 | 8.0 | 0.00 | 0.00 | 0.00 | 55 | 1013.5 |
| 20260509174545 | 84 | 208 | 2.0 | 7.0 | 0.00 | 0.00 | 0.00 | 59 | 1013.6 |
| 20260509173057 | 84 | 232 | 2.0 | 6.0 | 0.00 | 0.00 | 0.00 | 58 | 1013.8 |
| 20260509171544 | 81 | 211 | 2.0 | 12.0 | 0.00 | 0.00 | 0.00 | 67 | 1013.8 |
| 20260509170046 | 83 | 140 | 2.0 | 9.0 | 0.00 | 0.00 | 0.00 | 63 | 1013.9 |
| 20260509164545 | 81 | 149 | 2.0 | 11.0 | 0.00 | 0.00 | 0.00 | 68 | 1014.0 |
| 20260509163043 | 80 | 244 | 4.0 | 8.0 | 0.00 | 0.00 | 0.00 | 71 | 1014.0 |
| 20260509161544 | 77 | 196 | 2.0 | 11.0 | 0.00 | 0.00 | 0.00 | 75 | 1014.3 |
| 20260509160047 | 78 | 217 | 3.0 | 10.0 | 0.00 | 0.00 | 0.00 | 75 | 1013.9 |
| 20260509154544 | 77 | 182 | 6.0 | 13.0 | 0.00 | 0.00 | 0.00 | 75 | 1013.9 |
| 20260509153050 | 78 | 163 | 2.0 | 8.0 | 0.00 | 0.00 | 0.00 | 75 | 1013.7 |
| 20260509151544 | 76 | 161 | 3.0 | 7.0 | 0.00 | 0.00 | 0.00 | 76 | 1013.5 |
| 20260509150046 | 73 | 263 | 2.0 | 6.0 | 0.00 | 0.00 | 0.00 | 83 | 1013.4 |
| 20260509144604 | 72 | 0 | 1.0 | 8.0 | 0.00 | 0.00 | 0.00 | 86 | 1013.4 |
| 20260509143103 | 69 | 169 | 3.0 | 9.0 | 0.00 | 0.00 | 0.00 | 87 | 1013.6 |
| 20260509141545 | 69 | 175 | 1.0 | 8.0 | 0.00 | 0.00 | 0.00 | 88 | 1013.5 |
| 20260509140047 | 68 | 0 | 0.0 | 1.0 | 0.00 | 0.00 | 0.00 | 90 | 1013.8 |
| 20260509134559 | 68 | 29 | 0.0 | 4.0 | 0.00 | 0.00 | 0.00 | 90 | 1014.2 |
| 20260509133049 | 68 | 0 | 1.0 | 3.0 | 0.00 | 0.00 | 0.00 | 92 | 1014.0 |
| 20260509131545 | 67 | 0 | 0.0 | 2.0 | 0.00 | 0.00 | 0.00 | 93 | 1013.7 |
| 20260509130054 | 67 | 103 | 0.0 | 4.0 | 0.00 | 0.00 | 0.00 | 94 | 1013.9 |
| 20260509124545 | 67 | 0 | 0.0 | 3.0 | 0.00 | 0.00 | 0.00 | 94 | 1013.6 |
| 20260509123048 | 67 | 119 | 0.0 | 5.0 | 0.00 | 0.00 | 0.00 | 94 | 1013.8 |
| 20260509121601 | 66 | 61 | 1.0 | 6.0 | 0.00 | 0.00 | 0.00 | 94 | 1013.7 |
| 20260509120044 | 67 | 51 | 3.0 | 11.0 | 0.00 | 0.00 | 0.00 | 93 | 1013.4 |
| 20260509114542 | 67 | 34 | 3.0 | 13.0 | 0.00 | 0.00 | 0.00 | 93 | 1013.6 |
| 20260509113048 | 67 | 55 | 3.0 | 9.0 | 0.00 | 0.00 | 0.00 | 93 | 1013.7 |
| 20260509111600 | 68 | 51 | 3.0 | 12.0 | 0.00 | 0.00 | 0.00 | 94 | 1014.0 |
| 20260509110039 | 68 | 22 | 5.0 | 14.0 | 0.00 | 0.00 | 0.00 | 94 | 1013.9 |
| 20260509104548 | 67 | 0 | 0.0 | 1.0 | 0.00 | 0.00 | 0.00 | 93 | 1012.9 |
| 20260509103100 | 67 | 0 | 0.0 | 4.0 | 0.00 | 0.00 | 0.00 | 93 | 1012.8 |
| 20260509101616 | 67 | 0 | 0.0 | 4.0 | 0.00 | 0.00 | 0.00 | 93 | 1012.7 |
| 20260509100047 | 67 | 29 | 1.0 | 3.0 | 0.00 | 0.00 | 0.00 | 93 | 1012.3 |
| 20260509094541 | 67 | 29 | 0.0 | 3.0 | 0.00 | 0.00 | 0.00 | 93 | 1012.2 |
| 20260509093047 | 67 | 0 | 0.0 | 0.0 | 0.00 | 0.00 | 0.00 | 92 | 1012.1 |
| 20260509091545 | 67 | 0 | 0.0 | 1.0 | 0.00 | 0.00 | 0.00 | 92 | 1011.8 |
| 20260509090045 | 67 | 0 | 0.0 | 2.0 | 0.00 | 0.00 | 0.00 | 92 | 1011.9 |
| 20260509084549 | 67 | 0 | 0.0 | 0.0 | 0.00 | 0.00 | 0.00 | 92 | 1012.0 |
| 20260509083044 | 68 | 0 | 0.0 | 0.0 | 0.00 | 0.00 | 0.00 | 92 | 1012.4 |